Time;durP1;ratioP1;P1;durP2;ratioP2;P2;SDS_P1;SDS_P2;PMS_P1;PMS_P2;Temp;Humidity;BMP_temperature;BMP_pressure;BME280_temperature;BME280_humidity;BME280_pressure;Samples;Min_cycle;Max_cycle;Signal;HPM_P1;HPM_P2
2021/06/05 00:00:10;;;;;;;3.40;2.15;;;;;;;13.50;60.11;94604.97;5108382;28;20035;-68
2021/06/05 00:02:35;;;;;;;4.30;2.33;;;;;;;13.43;60.23;94601.94;5090537;28;20030;-67
2021/06/05 00:05:02;;;;;;;4.60;2.95;;;;;;;13.39;60.39;94593.78;5090131;28;20024;-67
2021/06/05 00:07:28;;;;;;;5.53;2.70;;;;;;;13.37;60.39;94606.69;5094977;28;20034;-67
2021/06/05 00:09:54;;;;;;;4.40;2.35;;;;;;;13.39;60.92;94601.81;5110634;28;20035;-67
2021/06/05 00:12:24;;;;;;;4.63;2.58;;;;;;;13.40;61.10;94597.22;5111158;27;20016;-67
2021/06/05 00:14:49;;;;;;;4.72;2.53;;;;;;;13.39;61.28;94596.44;5104001;28;20527;-67
2021/06/05 00:17:15;;;;;;;4.65;2.50;;;;;;;13.38;61.69;94597.53;5090213;28;20062;-68
2021/06/05 00:19:40;;;;;;;9.48;2.67;;;;;;;13.34;61.79;94607.28;5091377;28;20106;-67
2021/06/05 00:22:06;;;;;;;6.75;2.30;;;;;;;13.31;61.65;94613.28;5110505;28;20093;-67
2021/06/05 00:24:31;;;;;;;5.82;2.95;;;;;;;13.26;62.15;94613.38;5110632;28;20019;-67
2021/06/05 00:26:57;;;;;;;5.43;2.72;;;;;;;13.25;62.07;94611.81;5110602;28;20069;-67
2021/06/05 00:29:23;;;;;;;4.35;2.63;;;;;;;13.25;61.92;94617.19;5109222;28;20486;-67
2021/06/05 00:31:49;;;;;;;5.13;2.50;;;;;;;13.28;61.18;94611.19;5109228;28;20032;-67
2021/06/05 00:34:14;;;;;;;7.72;3.97;;;;;;;13.25;61.61;94609.16;5110647;28;20119;-68
2021/06/05 00:36:41;;;;;;;4.25;2.50;;;;;;;13.21;61.69;94608.97;5110511;28;20019;-68
2021/06/05 00:39:08;;;;;;;4.38;2.50;;;;;;;13.18;62.25;94606.91;5108929;28;20070;-68
2021/06/05 00:41:33;;;;;;;7.82;2.35;;;;;;;13.18;61.89;94598.09;5109077;28;20398;-68
2021/06/05 00:44:02;;;;;;;4.88;2.28;;;;;;;13.16;62.35;94595.72;5110225;28;20038;-68
2021/06/05 00:46:28;;;;;;;4.35;2.15;;;;;;;13.13;61.99;94595.56;5108621;28;20104;-67
2021/06/05 00:48:56;;;;;;;4.25;2.40;;;;;;;13.07;62.14;94589.56;5094725;28;20039;-67
2021/06/05 00:51:36;;;;;;;2.78;2.03;;;;;;;13.02;62.30;94593.16;5089706;28;20483;-67
2021/06/05 00:54:02;;;;;;;4.45;2.33;;;;;;;13.03;62.44;94591.28;5090004;28;20055;-67
2021/06/05 00:56:28;;;;;;;5.28;2.65;;;;;;;13.02;62.69;94593.16;5089750;28;20024;-67
2021/06/05 00:58:54;;;;;;;4.45;2.38;;;;;;;13.03;62.46;94589.41;5089769;28;20024;-68
2021/06/05 01:01:24;;;;;;;6.28;2.25;;;;;;;13.07;61.82;94589.56;5090020;28;20434;-68
2021/06/05 01:03:52;;;;;;;4.68;2.28;;;;;;;13.10;61.54;94594.28;5088634;28;20032;-67
2021/06/05 01:06:38;;;;;;;7.13;2.50;;;;;;;13.15;61.65;94604.09;5089739;28;20028;-68
2021/06/05 01:09:25;;;;;;;5.10;2.70;;;;;;;13.19;61.70;94602.38;5089639;28;20044;-68
2021/06/05 01:11:53;;;;;;;8.68;2.42;;;;;;;13.19;62.01;94602.38;5089970;28;20032;-67
2021/06/05 01:14:29;;;;;;;4.57;2.33;;;;;;;13.18;62.16;94608.81;5089822;28;20024;-67
2021/06/05 01:16:59;;;;;;;6.65;2.65;;;;;;;13.15;62.02;94618.25;5091927;28;20596;-67
2021/06/05 01:19:43;;;;;;;3.65;2.78;;;;;;;13.11;62.55;94614.63;5093543;28;20028;-67
2021/06/05 01:22:18;;;;;;;6.00;2.70;;;;;;;13.14;62.62;94618.56;5093805;28;20176;-68
2021/06/05 01:24:49;;;;;;;4.68;2.88;;;;;;;13.14;62.61;94616.66;5092463;28;20247;-67
2021/06/05 01:27:23;;;;;;;6.20;2.97;;;;;;;13.12;62.75;94618.84;5110613;28;20346;-67
2021/06/05 01:29:53;;;;;;;6.57;2.63;;;;;;;13.09;62.96;94618.69;5114153;28;20027;-67
2021/06/05 01:32:18;;;;;;;5.50;2.85;;;;;;;13.07;63.30;94620.88;5112304;28;20065;-67
2021/06/05 01:34:54;;;;;;;4.47;2.65;;;;;;;13.07;63.53;94631.59;5094652;28;20067;-67
2021/06/05 01:37:21;;;;;;;5.50;3.13;;;;;;;13.05;63.92;94616.63;5093751;28;20473;-66
2021/06/05 01:39:50;;;;;;;4.05;2.72;;;;;;;13.04;64.22;94617.72;5093323;28;20051;-67
2021/06/05 01:42:23;;;;;;;15.65;4.05;;;;;;;13.05;64.17;94624.66;5095622;28;20043;-67
2021/06/05 01:44:51;;;;;;;11.52;5.18;;;;;;;13.04;64.80;94622.28;5112311;28;20046;-66
2021/06/05 01:47:17;;;;;;;5.82;3.80;;;;;;;12.99;65.23;94614.41;5093274;28;20024;-66
2021/06/05 01:49:45;;;;;;;9.80;4.13;;;;;;;12.98;65.05;94624.31;5098854;28;20020;-67
2021/06/05 01:52:21;;;;;;;14.10;4.70;;;;;;;12.97;65.35;94620.06;5113398;28;20187;-67
2021/06/05 01:54:55;;;;;;;14.52;4.40;;;;;;;12.92;65.12;94619.41;5113366;28;20016;-67
2021/06/05 01:57:24;;;;;;;7.70;4.03;;;;;;;12.89;64.91;94614.69;5113621;28;20032;-68
2021/06/05 01:59:50;;;;;;;6.90;4.40;;;;;;;12.88;65.01;94608.53;5112068;28;20031;-66
2021/06/05 02:02:15;;;;;;;6.63;4.13;;;;;;;12.84;65.37;94607.56;5113366;28;20039;-67
2021/06/05 02:04:42;;;;;;;11.77;5.38;;;;;;;12.86;65.59;94605.38;5112975;28;20122;-67
2021/06/05 02:07:08;;;;;;;6.53;4.50;;;;;;;12.87;65.94;94601.63;5113271;28;20050;-67
2021/06/05 02:09:34;;;;;;;8.70;4.18;;;;;;;12.82;65.98;94615.94;5112906;28;20459;-67
2021/06/05 02:12:16;;;;;;;10.07;4.30;;;;;;;12.78;66.34;94611.47;5113098;28;20095;-67
2021/06/05 02:14:51;;;;;;;6.85;4.18;;;;;;;12.75;66.34;94604.88;5112497;28;20027;-67
2021/06/05 02:17:20;;;;;;;7.65;4.45;;;;;;;12.69;66.73;94605.31;5091401;28;20553;-67
2021/06/05 02:19:52;;;;;;;8.05;4.55;;;;;;;12.66;66.72;94598.69;5092368;28;20141;-67
2021/06/05 02:22:22;;;;;;;6.60;4.20;;;;;;;12.67;66.55;94602.16;5106031;28;20092;-67
2021/06/05 02:24:51;;;;;;;7.53;3.65;;;;;;;12.65;66.50;94597.09;5111545;28;20040;-67
2021/06/05 02:27:19;;;;;;;6.25;4.00;;;;;;;12.59;66.42;94599.13;5112404;28;20509;-67
2021/06/05 02:29:46;;;;;;;8.93;3.67;;;;;;;12.57;66.30;94604.00;5112506;28;20024;-67
2021/06/05 02:32:17;;;;;;;11.25;3.60;;;;;;;12.54;66.36;94603.84;5113039;28;20030;-67
2021/06/05 02:34:44;;;;;;;6.97;3.43;;;;;;;12.55;66.36;94611.53;5112448;28;20027;-68
2021/06/05 02:37:12;;;;;;;4.82;2.97;;;;;;;12.53;66.44;94608.38;5112700;28;20028;-67
2021/06/05 02:39:39;;;;;;;7.22;3.03;;;;;;;12.51;66.23;94612.47;5112252;28;20116;-67
2021/06/05 02:42:11;;;;;;;7.30;3.85;;;;;;;12.49;66.21;94602.06;5111301;28;20027;-68
2021/06/05 02:44:36;;;;;;;6.18;3.28;;;;;;;12.46;66.35;94602.69;5112549;28;20084;-67
2021/06/05 02:47:07;;;;;;;9.40;3.35;;;;;;;12.39;66.87;94602.31;5112149;28;20081;-67
2021/06/05 02:49:34;;;;;;;4.97;3.35;;;;;;;12.37;67.16;94596.50;5110944;28;20510;-67
2021/06/05 02:52:06;;;;;;;6.10;3.00;;;;;;;12.37;66.98;94607.19;5110621;28;20038;-67
2021/06/05 02:54:32;;;;;;;;;;;;;;;12.35;67.00;94612.03;5095738;28;20169;-68
2021/06/05 02:56:58;;;;;;;11.18;3.55;;;;;;;12.29;67.27;94602.56;5091769;28;20367;-67
2021/06/05 02:59:24;;;;;;;5.45;3.25;;;;;;;12.30;67.37;94612.97;5091633;28;20035;-68
2021/06/05 03:01:51;;;;;;;4.75;3.28;;;;;;;12.30;67.41;94598.81;5108097;28;20081;-68
2021/06/05 03:04:17;;;;;;;6.18;3.17;;;;;;;12.29;67.43;94599.91;5110755;28;20449;-67
2021/06/05 03:06:42;;;;;;;9.05;3.60;;;;;;;12.27;67.52;94597.53;5112077;28;20035;-67
2021/06/05 03:09:09;;;;;;;5.75;3.28;;;;;;;12.27;67.70;94602.09;5111387;28;20044;-67
2021/06/05 03:11:35;;;;;;;7.88;3.25;;;;;;;12.27;67.88;94602.88;5110900;28;20031;-67
2021/06/05 03:14:02;;;;;;;5.97;3.42;;;;;;;12.28;67.86;94599.13;5109461;28;20024;-68
2021/06/05 03:16:28;;;;;;;5.80;3.47;;;;;;;12.35;67.55;94604.03;5110888;28;20012;-67
2021/06/05 03:18:55;;;;;;;5.88;3.67;;;;;;;12.37;67.45;94599.16;5110439;28;20440;-68
2021/06/05 03:21:20;;;;;;;6.65;3.75;;;;;;;12.38;67.38;94592.75;5109617;28;20027;-68
2021/06/05 03:23:49;;;;;;;6.90;3.38;;;;;;;12.40;67.45;94596.69;5110764;28;20080;-67
2021/06/05 03:26:15;;;;;;;8.02;3.40;;;;;;;12.40;67.32;94593.22;5109207;28;20023;-67
2021/06/05 03:28:41;;;;;;;6.55;3.78;;;;;;;12.42;67.55;94596.38;5102470;28;20460;-68
2021/06/05 03:31:07;;;;;;;5.57;3.22;;;;;;;12.45;67.63;94603.75;5090123;28;20023;-67
2021/06/05 03:33:33;;;;;;;9.05;3.97;;;;;;;12.49;67.38;94602.06;5090389;28;20131;-67
2021/06/05 03:35:58;;;;;;;9.18;3.80;;;;;;;12.52;67.41;94606.81;5090333;28;20451;-67
2021/06/05 03:38:25;;;;;;;4.68;3.30;;;;;;;12.57;67.33;94605.88;5089856;28;20031;-67
2021/06/05 03:40:52;;;;;;;9.38;4.07;;;;;;;12.60;67.43;94603.38;5088440;28;20020;-67
2021/06/05 03:43:18;;;;;;;12.63;3.75;;;;;;;12.65;67.20;94605.13;5092998;28;20020;-67
2021/06/05 03:45:43;;;;;;;8.50;4.38;;;;;;;12.68;66.85;94609.06;5110238;28;20016;-67
2021/06/05 03:48:09;;;;;;;7.28;3.90;;;;;;;12.71;66.96;94611.16;5091861;28;20509;-67
2021/06/05 03:50:39;;;;;;;8.02;4.30;;;;;;;12.74;67.18;94597.94;5090163;28;20012;-67
2021/06/05 03:53:05;;;;;;;8.80;5.07;;;;;;;12.71;67.98;94598.56;5087382;28;20111;-68
2021/06/05 03:55:31;;;;;;;11.13;6.55;;;;;;;12.73;68.07;94599.03;5090016;28;20169;-67
2021/06/05 03:57:59;;;;;;;12.98;5.53;;;;;;;12.76;67.65;94601.09;5089904;28;20479;-67
2021/06/05 04:00:30;;;;;;;10.18;5.65;;;;;;;12.78;67.27;94598.91;5089534;28;20016;-67
2021/06/05 04:02:56;;;;;;;19.60;5.68;;;;;;;12.84;66.94;94599.53;5088548;28;20020;-67
2021/06/05 04:05:22;;;;;;;12.57;6.30;;;;;;;12.83;67.32;94604.13;5103661;28;20050;-67
2021/06/05 04:07:48;;;;;;;11.85;6.10;;;;;;;12.89;67.34;94604.78;5108852;28;20023;-67
2021/06/05 04:10:14;;;;;;;10.88;4.88;;;;;;;12.94;66.92;94601.94;5106161;28;86644;-67
2021/06/05 04:12:40;;;;;;;15.70;5.90;;;;;;;12.99;66.52;94612.53;5086012;28;20032;-67
2021/06/05 04:15:08;;;;;;;23.65;6.57;;;;;;;12.97;66.70;94605.91;5088952;28;20032;-68
2021/06/05 04:17:34;;;;;;;9.70;6.40;;;;;;;13.04;66.20;94603.56;5090474;28;20020;-67
2021/06/05 04:20:00;;;;;;;15.00;6.45;;;;;;;13.09;66.16;94597.28;5090370;28;20526;-67
2021/06/05 04:22:25;;;;;;;14.00;6.45;;;;;;;13.16;66.00;94600.28;5088703;28;20071;-67
2021/06/05 04:24:51;;;;;;;13.77;6.13;;;;;;;13.24;65.95;94594.19;5090281;28;20020;-67
2021/06/05 04:27:16;;;;;;;11.48;5.53;;;;;;;13.31;65.92;94591.06;5088625;28;20107;-68
2021/06/05 04:29:42;;;;;;;16.30;6.70;;;;;;;13.39;65.70;94588.41;5088824;28;20020;-67
2021/06/05 04:32:08;;;;;;;14.48;5.55;;;;;;;13.49;65.58;94602.59;5090335;28;20020;-67
2021/06/05 04:34:34;;;;;;;13.25;5.82;;;;;;;13.54;65.36;94591.75;5101354;28;20051;-69
2021/06/05 04:36:59;;;;;;;8.98;5.65;;;;;;;13.57;65.63;94591.09;5090353;28;20024;-67
2021/06/05 04:39:25;;;;;;;11.88;5.45;;;;;;;13.69;65.26;94587.81;5088704;28;20156;-67
2021/06/05 04:41:50;;;;;;;10.35;5.07;;;;;;;13.74;64.94;94580.41;5089979;28;20024;-67
2021/06/05 04:44:16;;;;;;;9.07;5.45;;;;;;;13.76;65.02;94575.53;5089767;28;20036;-68
2021/06/05 04:46:42;;;;;;;11.63;6.45;;;;;;;13.85;64.85;94578.19;5089954;28;20103;-68
2021/06/05 04:49:08;;;;;;;13.35;5.72;;;;;;;13.91;64.63;94576.16;5089957;28;20043;-68
2021/06/05 04:51:35;;;;;;;9.98;5.05;;;;;;;13.99;63.95;94575.38;5091868;28;20119;-68
2021/06/05 04:54:03;;;;;;;10.48;5.68;;;;;;;13.99;64.00;94570.00;5094100;28;20035;-68
2021/06/05 04:56:40;;;;;;;12.25;5.93;;;;;;;14.03;64.57;94570.94;5108840;28;20081;-72
2021/06/05 04:59:06;;;;;;;10.93;5.35;;;;;;;14.12;63.70;94569.03;5110214;28;20455;-72
2021/06/05 05:01:32;;;;;;;11.75;5.28;;;;;;;14.17;63.59;94562.72;5104653;28;20077;-72
2021/06/05 05:03:59;;;;;;;13.25;5.97;;;;;;;14.27;63.44;94565.06;5103050;28;20388;-72
2021/06/05 05:06:24;;;;;;;10.13;5.68;;;;;;;14.37;63.30;94563.94;5110004;28;20034;-72
2021/06/05 05:08:50;;;;;;;11.55;5.97;;;;;;;14.41;63.51;94560.31;5103046;28;20028;-72
2021/06/05 05:11:16;;;;;;;10.32;6.25;;;;;;;14.54;63.94;94569.25;5102884;28;20048;-72
2021/06/05 05:13:42;;;;;;;12.82;5.95;;;;;;;14.68;63.07;94562.94;5108141;28;20517;-72
2021/06/05 05:16:09;;;;;;;13.50;5.90;;;;;;;14.77;62.74;94553.72;5106746;28;20152;-71
2021/06/05 05:18:38;;;;;;;9.27;4.68;;;;;;;14.88;61.86;94550.69;5109367;28;20031;-71
2021/06/05 05:21:04;;;;;;;9.32;4.60;;;;;;;14.99;62.28;94558.06;5101539;28;20020;-72
2021/06/05 05:23:29;;;;;;;6.88;4.60;;;;;;;15.13;61.63;94551.69;5110015;28;20027;-71
2021/06/05 05:25:57;;;;;;;7.43;4.82;;;;;;;15.22;61.46;94560.47;5099526;28;20415;-71
2021/06/05 05:28:24;;;;;;;7.97;5.85;;;;;;;15.36;62.56;94561.00;5103889;28;20032;-72
2021/06/05 05:30:53;;;;;;;8.77;5.30;;;;;;;15.49;62.32;94544.97;5108061;28;20020;-72
2021/06/05 05:33:21;;;;;;;13.20;5.47;;;;;;;15.61;61.23;94559.28;5107367;28;20040;-72
2021/06/05 05:35:47;;;;;;;8.48;4.57;;;;;;;15.70;60.18;94548.44;5102340;28;20039;-72
2021/06/05 05:38:13;;;;;;;10.10;5.15;;;;;;;15.79;59.71;94553.78;5103787;28;20028;-71
2021/06/05 05:40:40;;;;;;;11.73;4.40;;;;;;;15.87;58.90;94555.63;5102433;28;20467;-71
2021/06/05 05:43:06;;;;;;;8.82;4.35;;;;;;;15.98;58.12;94554.09;5102725;28;20028;-72
2021/06/05 05:45:32;;;;;;;15.90;4.85;;;;;;;16.06;58.09;94552.47;5100682;28;20100;-72
2021/06/05 05:47:59;;;;;;;9.70;5.38;;;;;;;16.19;58.46;94547.91;5099776;28;20077;-72
2021/06/05 05:50:28;;;;;;;9.52;3.80;;;;;;;16.29;57.66;94549.41;5104294;28;20085;-71
2021/06/05 05:52:53;;;;;;;10.52;5.03;;;;;;;16.38;57.29;94550.06;5110774;28;20036;-72
2021/06/05 05:55:19;;;;;;;5.57;4.18;;;;;;;16.40;56.43;94542.47;5109701;28;20050;-72
2021/06/05 05:57:47;;;;;;;6.70;4.85;;;;;;;16.48;56.65;94538.88;5103106;28;20036;-72
2021/06/05 06:00:19;;;;;;;14.95;5.82;;;;;;;16.56;56.98;94546.06;5099059;28;20035;-72
2021/06/05 06:02:45;;;;;;;10.52;4.55;;;;;;;16.61;55.93;94545.88;5110000;28;20072;-72
2021/06/05 06:05:12;;;;;;;11.35;4.63;;;;;;;16.59;56.28;94545.44;5099794;28;20536;-72
2021/06/05 06:07:37;;;;;;;10.90;4.07;;;;;;;16.70;56.61;94548.47;5108056;28;20463;-72
2021/06/05 06:10:06;;;;;;;7.72;4.15;;;;;;;16.78;56.36;94549.47;5095111;28;20047;-72
2021/06/05 06:12:32;;;;;;;12.15;4.25;;;;;;;16.78;55.44;94546.78;5108181;28;20027;-77
2021/06/05 06:14:57;;;;;;;12.32;4.45;;;;;;;16.82;54.80;94547.72;5098528;28;20034;-78
2021/06/05 06:17:22;;;;;;;6.57;4.10;;;;;;;16.90;54.86;94546.84;5104587;28;20024;-81
2021/06/05 06:19:48;;;;;;;8.70;4.20;;;;;;;17.00;54.67;94538.31;5126904;27;20121;-81
2021/06/05 06:22:13;;;;;;;10.48;4.45;;;;;;;16.87;54.33;94542.09;5090887;28;20072;-81
2021/06/05 06:24:39;;;;;;;9.48;4.10;;;;;;;16.90;54.17;94535.28;5091193;28;20028;-80
2021/06/05 06:27:05;;;;;;;8.55;3.90;;;;;;;16.91;54.29;94532.22;5100255;28;20088;-80
2021/06/05 06:29:32;;;;;;;10.48;4.10;;;;;;;17.00;54.30;94535.59;5103403;28;20577;-80
2021/06/05 06:31:58;;;;;;;10.40;4.68;;;;;;;17.15;54.01;94536.06;5099588;28;20162;-81
2021/06/05 06:34:26;;;;;;;18.70;3.83;;;;;;;17.21;53.34;94537.41;5097152;28;20087;-81
2021/06/05 06:36:53;;;;;;;15.88;3.53;;;;;;;17.32;52.73;94541.22;5091608;28;20089;-73
2021/06/05 06:39:19;;;;;;;6.03;3.30;;;;;;;17.39;53.03;94538.72;5108917;28;20024;-73
2021/06/05 06:41:44;;;;;;;6.07;2.95;;;;;;;17.41;51.91;94541.06;5111340;28;20049;-73
2021/06/05 06:44:10;;;;;;;6.43;3.15;;;;;;;17.43;50.98;94539.59;5094658;28;20035;-73
2021/06/05 06:46:43;;;;;;;8.48;2.85;;;;;;;17.25;50.86;94544.44;5092662;28;20031;-74
2021/06/05 06:49:09;;;;;;;12.75;3.10;;;;;;;17.31;51.00;94534.25;5111831;28;20027;-73
2021/06/05 06:51:36;;;;;;;11.35;3.25;;;;;;;17.33;51.75;94539.28;5111956;27;20437;-73
2021/06/05 06:54:03;;;;;;;9.35;3.78;;;;;;;17.20;52.16;94535.84;5095395;28;20031;-75
2021/06/05 06:56:29;;;;;;;4.97;3.05;;;;;;;17.16;52.51;94534.94;5090436;28;20562;-75
2021/06/05 06:58:54;;;;;;;8.63;3.60;;;;;;;17.17;52.09;94531.13;5108338;28;20075;-75
2021/06/05 07:01:31;;;;;;;6.82;3.88;;;;;;;17.25;52.19;94527.50;5107872;28;20032;-73
2021/06/05 07:03:57;;;;;;;7.72;3.47;;;;;;;17.26;52.21;94523.72;5104789;28;20051;-74
2021/06/05 07:06:25;;;;;;;7.78;3.25;;;;;;;17.27;52.22;94514.50;5103957;28;20028;-73
2021/06/05 07:08:51;;;;;;;12.60;4.18;;;;;;;17.30;53.56;94524.59;5102996;28;20093;-73
2021/06/05 07:11:28;;;;;;;12.63;3.90;;;;;;;17.43;53.38;94518.03;5100466;28;20039;-73
2021/06/05 07:13:55;;;;;;;6.82;4.32;;;;;;;17.60;52.93;94525.06;5105946;28;20024;-76
2021/06/05 07:16:20;;;;;;;5.88;2.95;;;;;;;17.60;51.84;94525.06;5105261;28;20047;-67
2021/06/05 07:18:47;;;;;;;8.00;3.42;;;;;;;17.69;51.62;94529.53;5089661;28;20094;-67
2021/06/05 07:21:13;;;;;;;5.68;3.20;;;;;;;17.68;51.92;94523.38;5089629;28;20494;-67
2021/06/05 07:23:42;;;;;;;5.68;3.25;;;;;;;17.68;51.62;94519.91;5090889;28;20031;-67
2021/06/05 07:26:12;;;;;;;8.07;3.50;;;;;;;17.75;52.85;94520.91;5090767;28;20039;-67
2021/06/05 07:28:42;;;;;;;12.60;4.43;;;;;;;17.84;50.59;94521.56;5090732;28;20028;-67
2021/06/05 07:31:10;;;;;;;8.80;4.40;;;;;;;17.86;51.07;94520.44;5089231;28;20024;-67
2021/06/05 07:33:37;;;;;;;6.55;3.10;;;;;;;17.99;49.87;94530.84;5090480;28;20103;-67
2021/06/05 07:36:03;;;;;;;6.93;3.55;;;;;;;18.01;50.92;94530.47;5089183;28;20109;-69
2021/06/05 07:38:29;;;;;;;7.18;3.60;;;;;;;18.14;49.55;94523.13;5088851;28;20027;-69
2021/06/05 07:40:56;;;;;;;18.48;4.10;;;;;;;18.17;49.22;94520.50;5090463;28;20040;-69
2021/06/05 07:43:26;;;;;;;8.00;3.55;;;;;;;18.28;50.85;94522.72;5090475;28;20103;-68
2021/06/05 07:45:54;;;;;;;5.80;3.42;;;;;;;18.38;49.37;94527.63;5088997;28;20056;-68
2021/06/05 07:48:19;;;;;;;11.25;3.10;;;;;;;18.53;49.04;94526.84;5090416;28;20120;-68
2021/06/05 07:50:45;;;;;;;10.10;3.40;;;;;;;18.65;48.13;94517.88;5108122;28;20055;-69
2021/06/05 07:53:10;;;;;;;5.53;3.15;;;;;;;18.59;46.99;94520.06;5109284;28;20023;-69
2021/06/05 07:55:36;;;;;;;10.35;2.88;;;;;;;18.68;46.86;94519.88;5110485;28;20024;-70
2021/06/05 07:58:02;;;;;;;7.07;3.40;;;;;;;18.70;46.67;94527.63;5109013;28;20093;-69
2021/06/05 08:00:31;;;;;;;10.35;3.95;;;;;;;18.69;47.30;94520.69;5094264;28;20031;-68
2021/06/05 08:02:56;;;;;;;15.05;3.63;;;;;;;18.81;47.20;94524.09;5088698;28;20028;-69
2021/06/05 08:05:22;;;;;;;15.68;4.35;;;;;;;18.77;47.43;94525.91;5088961;28;20024;-68
2021/06/05 08:07:48;;;;;;;11.02;4.13;;;;;;;18.86;46.72;94514.94;5089836;28;20027;-77
2021/06/05 08:10:16;;;;;;;9.75;4.43;;;;;;;18.93;46.53;94514.31;5093776;28;20108;-78
2021/06/05 08:12:42;;;;;;;7.82;4.25;;;;;;;18.94;46.18;94511.28;5108884;28;20115;-77
2021/06/05 08:15:11;;;;;;;18.05;4.35;;;;;;;19.03;47.31;94514.59;5093984;28;20024;-76
2021/06/05 08:17:37;;;;;;;11.45;3.90;;;;;;;19.03;46.62;94506.50;5088604;28;20414;-82
2021/06/05 08:20:10;;;;;;;7.47;3.60;;;;;;;18.99;44.80;94497.53;5098303;28;20059;-68
2021/06/05 08:22:35;;;;;;;8.73;2.70;;;;;;;19.01;42.21;94506.06;5095620;28;20028;-69
2021/06/05 08:25:01;;;;;;;4.30;2.13;;;;;;;19.09;41.14;94511.63;5087727;28;20457;-69
2021/06/05 08:27:27;;;;;;;14.73;3.55;;;;;;;19.18;42.21;94513.00;5095645;28;20535;-69
2021/06/05 08:29:54;;;;;;;6.78;2.70;;;;;;;19.32;41.96;94495.53;5105130;28;20028;-69
2021/06/05 08:32:19;;;;;;;5.90;2.90;;;;;;;19.44;41.62;94496.19;5105265;28;20028;-68
2021/06/05 08:34:45;;;;;;;5.97;2.60;;;;;;;19.54;42.55;94504.88;5102010;28;20038;-68
2021/06/05 08:37:11;;;;;;;7.88;2.90;;;;;;;19.62;41.22;94495.78;5098422;28;20024;-68
2021/06/05 08:39:37;;;;;;;6.32;3.00;;;;;;;19.67;40.80;94497.44;5094596;28;20020;-72
2021/06/05 08:42:04;;;;;;;5.72;3.10;;;;;;;19.67;42.71;94487.41;5101004;28;20043;-69
2021/06/05 08:44:35;;;;;;;5.13;3.05;;;;;;;19.69;40.36;94481.63;5094932;28;20047;-68
2021/06/05 08:47:26;;;;;;;10.90;2.97;;;;;;;19.81;40.35;94481.53;5100199;28;20376;-68
2021/06/05 08:49:53;;;;;;;5.70;2.90;;;;;;;19.94;41.67;94480.22;5091238;28;20020;-68
2021/06/05 08:52:28;;;;;;;4.53;2.30;;;;;;;20.01;40.87;94476.88;5108578;28;20028;-68
2021/06/05 08:55:00;;;;;;;4.15;2.50;;;;;;;20.17;40.70;94483.00;5097403;28;20392;-68
2021/06/05 08:57:40;;;;;;;6.28;2.58;;;;;;;20.22;38.62;94479.19;5087532;28;20024;-68
2021/06/05 09:00:32;;;;;;;6.18;2.90;;;;;;;20.24;39.94;94476.91;5090901;28;20032;-68
2021/06/05 09:03:07;;;;;;;8.63;3.43;;;;;;;20.28;39.79;94468.88;5089314;28;20027;-68
2021/06/05 09:05:37;;;;;;;7.40;2.40;;;;;;;20.29;38.10;94467.72;5093748;28;20107;-68
2021/06/05 09:08:04;;;;;;;6.75;3.00;;;;;;;20.32;36.15;94461.59;5108088;28;20060;-68
2021/06/05 09:10:30;;;;;;;5.63;2.22;;;;;;;20.35;35.83;94463.56;5095953;28;20048;-68
2021/06/05 09:12:56;;;;;;;11.25;3.00;;;;;;;20.46;37.08;94461.84;5088406;28;20024;-68
2021/06/05 09:15:33;;;;;;;13.60;3.28;;;;;;;20.48;35.91;94458.78;5089242;28;20036;-68
2021/06/05 09:18:01;;;;;;;5.93;2.17;;;;;;;20.63;35.07;94450.53;5095946;28;20031;-68
2021/06/05 09:20:38;;;;;;;3.83;2.08;;;;;;;20.82;34.74;94452.38;5105127;28;20487;-69
2021/06/05 09:23:25;;;;;;;4.20;2.20;;;;;;;20.94;33.75;94445.19;5089850;28;20020;-68
2021/06/05 09:25:51;;;;;;;4.13;2.28;;;;;;;21.11;35.05;94441.19;5094464;28;20495;-68
2021/06/05 09:28:22;;;;;;;3.35;2.05;;;;;;;21.39;34.96;94428.03;5105186;28;20486;-68
2021/06/05 09:30:51;;;;;;;4.55;1.95;;;;;;;21.57;33.07;94432.91;5108752;28;20546;-68
2021/06/05 09:33:36;;;;;;;5.65;1.95;;;;;;;21.76;32.18;94432.75;5108519;28;20479;-69
2021/06/05 09:36:13;;;;;;;3.72;2.60;;;;;;;21.73;31.84;94432.72;5097914;28;20039;-68
2021/06/05 09:38:46;;;;;;;3.70;2.33;;;;;;;21.72;31.53;94431.16;5103185;28;20383;-68
2021/06/05 09:41:18;;;;;;;4.50;1.95;;;;;;;21.77;31.79;94423.44;5112319;28;20489;-68
2021/06/05 09:43:46;;;;;;;4.05;2.10;;;;;;;22.02;31.77;94415.59;5088005;28;20055;-69
2021/06/05 09:46:22;;;;;;;3.10;2.17;;;;;;;22.20;31.94;94414.97;5108863;28;20023;-69
2021/06/05 09:48:52;;;;;;;7.13;1.70;;;;;;;22.13;31.07;94414.91;5089517;28;20020;-69
2021/06/05 09:51:39;;;;;;;6.57;2.20;;;;;;;22.24;31.85;94413.88;5104371;28;20022;-68
2021/06/05 09:54:27;;;;;;;4.28;1.85;;;;;;;22.19;33.96;94408.78;5096217;28;20495;-68
2021/06/05 09:56:52;;;;;;;4.63;2.03;;;;;;;22.27;32.71;94404.22;5105362;28;20019;-69
2021/06/05 09:59:29;;;;;;;3.00;1.80;;;;;;;22.14;33.33;94398.22;5098821;28;20111;-69
2021/06/05 10:01:56;;;;;;;6.75;2.53;;;;;;;21.97;32.50;94396.91;5098472;28;20053;-69
2021/06/05 10:04:24;;;;;;;7.28;1.98;;;;;;;22.03;34.25;94394.66;5103963;28;20050;-69
2021/06/05 10:06:53;;;;;;;2.80;1.88;;;;;;;21.93;32.24;94390.69;5099320;28;20031;-69
2021/06/05 10:09:24;;;;;;;6.50;1.77;;;;;;;21.89;32.05;94399.94;5109715;28;20044;-69
2021/06/05 10:12:09;;;;;;;4.87;1.83;;;;;;;21.97;32.77;94407.78;5107270;28;20092;-69
2021/06/05 10:14:58;;;;;;;5.90;2.17;;;;;;;21.86;31.18;94400.66;5112834;28;20787;-69
2021/06/05 10:17:29;;;;;;;6.38;2.00;;;;;;;21.92;32.08;94391.84;5095758;28;20063;-69
2021/06/05 10:20:12;;;;;;;5.43;2.00;;;;;;;21.98;31.88;94394.97;5097144;28;20032;-68
2021/06/05 10:22:39;;;;;;;4.55;2.00;;;;;;;22.19;31.67;94395.19;5092264;28;20020;-69
2021/06/05 10:25:06;;;;;;;3.22;2.03;;;;;;;22.34;30.37;94396.13;5106944;28;20125;-69
2021/06/05 10:27:42;;;;;;;3.05;1.92;;;;;;;22.41;31.11;94390.75;5095435;28;20146;-68
2021/06/05 10:30:20;;;;;;;4.22;1.73;;;;;;;22.43;31.53;94395.81;5103586;28;20019;-69
2021/06/05 10:32:47;;;;;;;5.35;2.00;;;;;;;22.41;31.70;94388.03;5102457;28;20051;-69
2021/06/05 10:35:31;;;;;;;8.05;2.38;;;;;;;22.44;32.13;94383.78;5105729;28;20028;-69
2021/06/05 10:38:34;;;;;;;7.25;2.00;;;;;;;22.66;32.82;94383.97;5096963;28;20019;-68
2021/06/05 10:41:00;;;;;;;3.15;2.05;;;;;;;22.83;29.73;94383.28;5097705;28;20024;-69
2021/06/05 10:43:25;;;;;;;2.67;1.70;;;;;;;22.80;29.65;94386.78;5103540;28;20044;-69
2021/06/05 10:45:51;;;;;;;2.47;1.80;;;;;;;22.68;30.69;94376.22;5094994;28;20043;-69
2021/06/05 10:48:31;;;;;;;4.75;1.92;;;;;;;22.71;30.17;94370.78;5107510;28;20027;-69
2021/06/05 10:51:08;;;;;;;5.25;1.77;;;;;;;22.80;30.49;94373.19;5092751;28;20027;-69
2021/06/05 10:53:46;;;;;;;3.33;1.70;;;;;;;22.59;30.86;94366.47;5099531;28;20160;-69
2021/06/05 10:56:16;;;;;;;3.45;2.10;;;;;;;22.60;30.88;94375.38;5098863;28;20063;-68
2021/06/05 10:58:50;;;;;;;5.10;2.08;;;;;;;22.60;30.88;94365.28;5096459;28;20046;-69
2021/06/05 11:01:21;;;;;;;5.90;2.40;;;;;;;22.73;31.78;94362.25;5105802;28;20080;-69
2021/06/05 11:03:50;;;;;;;3.53;1.90;;;;;;;22.71;31.31;94359.16;5109017;28;20390;-69
2021/06/05 11:06:23;;;;;;;7.35;3.08;;;;;;;22.92;32.35;94353.06;5106322;28;20027;-69
2021/06/05 11:08:57;;;;;;;6.43;1.95;;;;;;;23.05;29.65;94356.28;5110457;28;20370;-68
2021/06/05 11:11:41;;;;;;;7.85;1.98;;;;;;;23.08;28.69;94352.78;5102143;28;20114;-69
2021/06/05 11:14:29;;;;;;;2.72;1.80;;;;;;;23.19;28.99;94345.47;5090874;28;20020;-69
2021/06/05 11:16:58;;;;;;;5.97;2.05;;;;;;;23.18;30.30;94352.06;5086377;28;20074;-68
2021/06/05 11:19:39;;;;;;;6.15;2.05;;;;;;;22.97;30.91;94341.84;5098122;28;20119;-69
2021/06/05 11:22:10;;;;;;;7.75;1.73;;;;;;;22.89;30.61;94348.41;5103759;28;20064;-68
2021/06/05 11:24:37;;;;;;;2.40;1.65;;;;;;;22.78;30.11;94340.19;5096828;28;20380;-69
2021/06/05 11:27:08;;;;;;;3.30;1.60;;;;;;;22.81;29.53;94342.91;5092884;28;20370;-69
2021/06/05 11:29:34;;;;;;;5.93;2.05;;;;;;;22.89;30.87;94338.28;5105596;28;20051;-68
2021/06/05 11:32:02;;;;;;;6.60;1.75;;;;;;;22.89;30.43;94338.28;5107702;28;20071;-69
2021/06/05 11:34:34;;;;;;;3.65;1.77;;;;;;;22.95;31.94;94334.06;5110164;28;20126;-69
2021/06/05 11:37:00;;;;;;;4.68;1.92;;;;;;;22.96;29.19;94322.03;5109745;28;20031;-69
2021/06/05 11:39:26;;;;;;;2.40;1.90;;;;;;;23.14;30.71;94332.22;5109959;28;20039;-69